sensor_id;sensor_type;location;lat;lon;timestamp;temperature;humidity
78522;SHT31;67819;51.972;5.678;2023-04-09T00:01:07;12.1;64.5
78522;SHT31;67819;51.972;5.678;2023-04-09T00:03:37;12.1;64.5
78522;SHT31;67819;51.972;5.678;2023-04-09T00:06:06;12.1;64.6
78522;SHT31;67819;51.972;5.678;2023-04-09T00:08:35;12.1;64.6
78522;SHT31;67819;51.972;5.678;2023-04-09T00:11:04;12.1;64.7
78522;SHT31;67819;51.972;5.678;2023-04-09T00:13:33;12.1;65.0
78522;SHT31;67819;51.972;5.678;2023-04-09T00:16:01;12.1;64.6
78522;SHT31;67819;51.972;5.678;2023-04-09T00:18:30;12.1;64.6
78522;SHT31;67819;51.972;5.678;2023-04-09T00:20:59;12.1;64.2
78522;SHT31;67819;51.972;5.678;2023-04-09T00:23:29;12.1;64.4
78522;SHT31;67819;51.972;5.678;2023-04-09T00:25:59;12.1;64.4
78522;SHT31;67819;51.972;5.678;2023-04-09T00:28:28;12.1;64.5
78522;SHT31;67819;51.972;5.678;2023-04-09T00:30:56;12.1;64.5
78522;SHT31;67819;51.972;5.678;2023-04-09T00:33:25;12.1;64.9
78522;SHT31;67819;51.972;5.678;2023-04-09T00:35:53;12.1;65.1
78522;SHT31;67819;51.972;5.678;2023-04-09T00:38:22;12.2;65.0
78522;SHT31;67819;51.972;5.678;2023-04-09T00:40:53;12.2;64.5
78522;SHT31;67819;51.972;5.678;2023-04-09T00:43:21;12.2;64.0
78522;SHT31;67819;51.972;5.678;2023-04-09T00:45:52;12.2;64.2
78522;SHT31;67819;51.972;5.678;2023-04-09T00:48:21;12.2;64.0
78522;SHT31;67819;51.972;5.678;2023-04-09T00:50:50;12.2;63.7
78522;SHT31;67819;51.972;5.678;2023-04-09T00:53:19;12.2;63.9
78522;SHT31;67819;51.972;5.678;2023-04-09T00:55:47;12.2;64.5
78522;SHT31;67819;51.972;5.678;2023-04-09T00:58:16;12.2;64.3
78522;SHT31;67819;51.972;5.678;2023-04-09T01:00:45;12.2;64.5
78522;SHT31;67819;51.972;5.678;2023-04-09T01:03:13;12.2;64.0
78522;SHT31;67819;51.972;5.678;2023-04-09T01:05:52;12.2;64.0
78522;SHT31;67819;51.972;5.678;2023-04-09T01:08:35;12.2;64.1
78522;SHT31;67819;51.972;5.678;2023-04-09T01:11:19;12.2;64.2
78522;SHT31;67819;51.972;5.678;2023-04-09T01:13:57;12.2;64.2
78522;SHT31;67819;51.972;5.678;2023-04-09T01:16:31;12.2;64.1
78522;SHT31;67819;51.972;5.678;2023-04-09T01:19:14;12.2;64.3
78522;SHT31;67819;51.972;5.678;2023-04-09T01:21:43;12.2;64.0
78522;SHT31;67819;51.972;5.678;2023-04-09T01:24:20;12.2;64.1
78522;SHT31;67819;51.972;5.678;2023-04-09T01:26:58;12.2;64.2
78522;SHT31;67819;51.972;5.678;2023-04-09T01:29:31;12.2;64.1
78522;SHT31;67819;51.972;5.678;2023-04-09T01:32:02;12.2;64.1
78522;SHT31;67819;51.972;5.678;2023-04-09T01:34:32;12.2;64.3
78522;SHT31;67819;51.972;5.678;2023-04-09T01:37:02;12.2;64.3
78522;SHT31;67819;51.972;5.678;2023-04-09T01:39:31;12.2;64.3
78522;SHT31;67819;51.972;5.678;2023-04-09T01:42:04;12.2;64.3
78522;SHT31;67819;51.972;5.678;2023-04-09T01:44:37;12.2;64.4
78522;SHT31;67819;51.972;5.678;2023-04-09T01:47:07;12.2;64.5
78522;SHT31;67819;51.972;5.678;2023-04-09T01:49:39;12.2;64.3
78522;SHT31;67819;51.972;5.678;2023-04-09T01:52:09;12.2;64.5
78522;SHT31;67819;51.972;5.678;2023-04-09T01:54:37;12.1;64.8
78522;SHT31;67819;51.972;5.678;2023-04-09T01:57:06;12.1;65.1
78522;SHT31;67819;51.972;5.678;2023-04-09T01:59:35;12.1;64.8
78522;SHT31;67819;51.972;5.678;2023-04-09T02:02:08;12.1;64.6
78522;SHT31;67819;51.972;5.678;2023-04-09T02:04:40;12.1;64.6
78522;SHT31;67819;51.972;5.678;2023-04-09T02:07:16;12.1;64.7
78522;SHT31;67819;51.972;5.678;2023-04-09T02:09:47;12.1;65.2
78522;SHT31;67819;51.972;5.678;2023-04-09T02:12:18;12.1;64.8
78522;SHT31;67819;51.972;5.678;2023-04-09T02:14:51;12.1;64.8
78522;SHT31;67819;51.972;5.678;2023-04-09T02:17:20;12.1;65.2
78522;SHT31;67819;51.972;5.678;2023-04-09T02:19:49;12.1;64.6
78522;SHT31;67819;51.972;5.678;2023-04-09T02:22:20;12.1;65.4
78522;SHT31;67819;51.972;5.678;2023-04-09T02:24:48;12.0;64.9
78522;SHT31;67819;51.972;5.678;2023-04-09T02:27:17;12.0;65.0
78522;SHT31;67819;51.972;5.678;2023-04-09T02:29:46;12.0;64.8
78522;SHT31;67819;51.972;5.678;2023-04-09T02:32:17;12.0;64.4
78522;SHT31;67819;51.972;5.678;2023-04-09T02:34:46;12.0;64.5
78522;SHT31;67819;51.972;5.678;2023-04-09T02:37:14;12.0;64.7
78522;SHT31;67819;51.972;5.678;2023-04-09T02:39:43;11.9;64.7
78522;SHT31;67819;51.972;5.678;2023-04-09T02:42:12;11.9;64.7
78522;SHT31;67819;51.972;5.678;2023-04-09T02:44:40;11.9;64.7
78522;SHT31;67819;51.972;5.678;2023-04-09T02:47:09;11.9;64.6
78522;SHT31;67819;51.972;5.678;2023-04-09T02:49:38;11.8;64.8
78522;SHT31;67819;51.972;5.678;2023-04-09T02:52:08;11.8;64.9
78522;SHT31;67819;51.972;5.678;2023-04-09T02:54:37;11.8;64.7
78522;SHT31;67819;51.972;5.678;2023-04-09T02:57:06;11.7;64.6
78522;SHT31;67819;51.972;5.678;2023-04-09T02:59:34;11.7;64.7
78522;SHT31;67819;51.972;5.678;2023-04-09T03:02:04;11.7;64.9
78522;SHT31;67819;51.972;5.678;2023-04-09T03:04:33;11.7;64.6
78522;SHT31;67819;51.972;5.678;2023-04-09T03:07:01;11.6;65.4
78522;SHT31;67819;51.972;5.678;2023-04-09T03:09:30;11.6;65.2
78522;SHT31;67819;51.972;5.678;2023-04-09T03:11:58;11.7;64.7
78522;SHT31;67819;51.972;5.678;2023-04-09T03:14:27;11.7;64.4
78522;SHT31;67819;51.972;5.678;2023-04-09T03:16:56;11.7;64.3
78522;SHT31;67819;51.972;5.678;2023-04-09T03:19:24;11.7;64.5
78522;SHT31;67819;51.972;5.678;2023-04-09T03:21:53;11.7;65.2
78522;SHT31;67819;51.972;5.678;2023-04-09T03:24:21;11.7;65.5
78522;SHT31;67819;51.972;5.678;2023-04-09T03:26:50;11.7;64.8
78522;SHT31;67819;51.972;5.678;2023-04-09T03:29:19;11.7;65.3
78522;SHT31;67819;51.972;5.678;2023-04-09T03:31:48;11.8;64.6
78522;SHT31;67819;51.972;5.678;2023-04-09T03:34:16;11.8;64.5
78522;SHT31;67819;51.972;5.678;2023-04-09T03:36:45;11.8;64.6
78522;SHT31;67819;51.972;5.678;2023-04-09T03:39:13;11.8;64.2
78522;SHT31;67819;51.972;5.678;2023-04-09T03:41:44;11.8;64.8
78522;SHT31;67819;51.972;5.678;2023-04-09T03:44:14;11.8;63.8
78522;SHT31;67819;51.972;5.678;2023-04-09T03:46:44;11.8;63.3
78522;SHT31;67819;51.972;5.678;2023-04-09T03:49:13;11.8;63.1
78522;SHT31;67819;51.972;5.678;2023-04-09T03:51:41;11.8;63.2
78522;SHT31;67819;51.972;5.678;2023-04-09T03:54:10;11.8;63.6
78522;SHT31;67819;51.972;5.678;2023-04-09T03:56:39;11.8;63.8
78522;SHT31;67819;51.972;5.678;2023-04-09T03:59:07;11.7;63.8
78522;SHT31;67819;51.972;5.678;2023-04-09T04:01:36;11.7;63.8
78522;SHT31;67819;51.972;5.678;2023-04-09T04:04:05;11.7;63.3
78522;SHT31;67819;51.972;5.678;2023-04-09T04:06:34;11.7;64.4
78522;SHT31;67819;51.972;5.678;2023-04-09T04:09:02;11.7;64.4
78522;SHT31;67819;51.972;5.678;2023-04-09T04:11:31;11.7;64.1
78522;SHT31;67819;51.972;5.678;2023-04-09T04:13:59;11.7;63.4
78522;SHT31;67819;51.972;5.678;2023-04-09T04:16:28;11.7;63.1
78522;SHT31;67819;51.972;5.678;2023-04-09T04:18:57;11.7;63.8
78522;SHT31;67819;51.972;5.678;2023-04-09T04:21:26;11.7;63.5
78522;SHT31;67819;51.972;5.678;2023-04-09T04:23:54;11.7;64.2
78522;SHT31;67819;51.972;5.678;2023-04-09T04:26:23;11.7;63.8
78522;SHT31;67819;51.972;5.678;2023-04-09T04:28:54;11.7;64.4
78522;SHT31;67819;51.972;5.678;2023-04-09T04:31:22;11.7;63.7
78522;SHT31;67819;51.972;5.678;2023-04-09T04:33:51;11.7;63.9
78522;SHT31;67819;51.972;5.678;2023-04-09T04:36:19;11.7;64.2
78522;SHT31;67819;51.972;5.678;2023-04-09T04:38:48;11.7;64.1
78522;SHT31;67819;51.972;5.678;2023-04-09T04:41:16;11.7;63.6
78522;SHT31;67819;51.972;5.678;2023-04-09T04:43:47;11.7;63.8
78522;SHT31;67819;51.972;5.678;2023-04-09T04:46:18;11.7;63.6
78522;SHT31;67819;51.972;5.678;2023-04-09T04:48:47;11.7;63.8
78522;SHT31;67819;51.972;5.678;2023-04-09T04:51:16;11.7;64.2
78522;SHT31;67819;51.972;5.678;2023-04-09T04:53:44;11.7;64.7
78522;SHT31;67819;51.972;5.678;2023-04-09T04:56:14;11.7;65.1
78522;SHT31;67819;51.972;5.678;2023-04-09T04:58:43;11.6;65.2
78522;SHT31;67819;51.972;5.678;2023-04-09T05:01:12;11.6;65.1
78522;SHT31;67819;51.972;5.678;2023-04-09T05:03:41;11.6;65.2
78522;SHT31;67819;51.972;5.678;2023-04-09T05:06:10;11.6;65.3
78522;SHT31;67819;51.972;5.678;2023-04-09T05:08:38;11.5;65.7
78522;SHT31;67819;51.972;5.678;2023-04-09T05:11:10;11.5;65.9
78522;SHT31;67819;51.972;5.678;2023-04-09T05:13:40;11.5;65.9
78522;SHT31;67819;51.972;5.678;2023-04-09T05:16:18;11.5;66.0
78522;SHT31;67819;51.972;5.678;2023-04-09T05:18:47;11.4;65.8
78522;SHT31;67819;51.972;5.678;2023-04-09T05:21:16;11.4;65.8
78522;SHT31;67819;51.972;5.678;2023-04-09T05:23:45;11.4;66.0
78522;SHT31;67819;51.972;5.678;2023-04-09T05:26:13;11.3;66.0
78522;SHT31;67819;51.972;5.678;2023-04-09T05:28:42;11.3;66.1
78522;SHT31;67819;51.972;5.678;2023-04-09T05:31:13;11.3;65.8
78522;SHT31;67819;51.972;5.678;2023-04-09T05:33:41;11.3;65.3
78522;SHT31;67819;51.972;5.678;2023-04-09T05:36:14;11.2;64.7
78522;SHT31;67819;51.972;5.678;2023-04-09T05:38:45;11.2;64.7
78522;SHT31;67819;51.972;5.678;2023-04-09T05:41:14;11.2;63.9
78522;SHT31;67819;51.972;5.678;2023-04-09T05:43:43;11.1;64.0
78522;SHT31;67819;51.972;5.678;2023-04-09T05:46:11;11.0;63.5
78522;SHT31;67819;51.972;5.678;2023-04-09T05:48:40;11.0;63.6
78522;SHT31;67819;51.972;5.678;2023-04-09T05:51:08;10.9;63.3
78522;SHT31;67819;51.972;5.678;2023-04-09T05:53:39;10.9;63.7
78522;SHT31;67819;51.972;5.678;2023-04-09T05:56:13;10.8;64.2
78522;SHT31;67819;51.972;5.678;2023-04-09T05:58:42;10.8;64.9
78522;SHT31;67819;51.972;5.678;2023-04-09T06:01:11;10.7;65.1
78522;SHT31;67819;51.972;5.678;2023-04-09T06:03:40;10.7;64.6
78522;SHT31;67819;51.972;5.678;2023-04-09T06:06:08;10.7;64.3
78522;SHT31;67819;51.972;5.678;2023-04-09T06:08:37;10.6;64.5
78522;SHT31;67819;51.972;5.678;2023-04-09T06:11:09;10.6;64.9
78522;SHT31;67819;51.972;5.678;2023-04-09T06:13:38;10.5;64.9
78522;SHT31;67819;51.972;5.678;2023-04-09T06:16:08;10.5;64.7
78522;SHT31;67819;51.972;5.678;2023-04-09T06:18:37;10.4;64.9
78522;SHT31;67819;51.972;5.678;2023-04-09T06:21:08;10.4;65.7
78522;SHT31;67819;51.972;5.678;2023-04-09T06:23:39;10.4;65.8
78522;SHT31;67819;51.972;5.678;2023-04-09T06:26:07;10.3;65.5
78522;SHT31;67819;51.972;5.678;2023-04-09T06:28:38;10.3;64.8
78522;SHT31;67819;51.972;5.678;2023-04-09T06:31:07;10.3;65.2
78522;SHT31;67819;51.972;5.678;2023-04-09T06:33:36;10.3;65.1
78522;SHT31;67819;51.972;5.678;2023-04-09T06:36:05;10.3;65.2
78522;SHT31;67819;51.972;5.678;2023-04-09T06:38:34;10.3;65.5
78522;SHT31;67819;51.972;5.678;2023-04-09T06:41:03;10.3;65.6
78522;SHT31;67819;51.972;5.678;2023-04-09T06:43:33;10.3;65.3
78522;SHT31;67819;51.972;5.678;2023-04-09T06:46:02;10.3;65.3
78522;SHT31;67819;51.972;5.678;2023-04-09T06:48:31;10.3;65.2
78522;SHT31;67819;51.972;5.678;2023-04-09T06:51:00;10.3;65.2
78522;SHT31;67819;51.972;5.678;2023-04-09T06:53:28;10.3;64.8
78522;SHT31;67819;51.972;5.678;2023-04-09T06:55:57;10.4;65.3
78522;SHT31;67819;51.972;5.678;2023-04-09T06:58:25;10.4;64.8
78522;SHT31;67819;51.972;5.678;2023-04-09T07:00:54;10.3;65.3
78522;SHT31;67819;51.972;5.678;2023-04-09T07:03:22;10.3;65.0
78522;SHT31;67819;51.972;5.678;2023-04-09T07:05:55;10.3;64.7
78522;SHT31;67819;51.972;5.678;2023-04-09T07:08:24;10.3;65.3
78522;SHT31;67819;51.972;5.678;2023-04-09T07:10:56;10.3;65.3
78522;SHT31;67819;51.972;5.678;2023-04-09T07:13:24;10.3;65.2
78522;SHT31;67819;51.972;5.678;2023-04-09T07:15:53;10.3;65.7
78522;SHT31;67819;51.972;5.678;2023-04-09T07:18:21;10.3;65.5
78522;SHT31;67819;51.972;5.678;2023-04-09T07:20:50;10.4;65.1
78522;SHT31;67819;51.972;5.678;2023-04-09T07:23:20;10.4;65.2
78522;SHT31;67819;51.972;5.678;2023-04-09T07:25:49;10.4;65.3
78522;SHT31;67819;51.972;5.678;2023-04-09T07:28:17;10.5;65.5
78522;SHT31;67819;51.972;5.678;2023-04-09T07:30:46;10.5;66.3
78522;SHT31;67819;51.972;5.678;2023-04-09T07:33:16;10.5;65.1
78522;SHT31;67819;51.972;5.678;2023-04-09T07:35:45;10.6;64.7
78522;SHT31;67819;51.972;5.678;2023-04-09T07:38:14;10.6;64.7
78522;SHT31;67819;51.972;5.678;2023-04-09T07:40:42;10.7;64.7
78522;SHT31;67819;51.972;5.678;2023-04-09T07:43:11;10.7;64.9
78522;SHT31;67819;51.972;5.678;2023-04-09T07:45:40;10.7;65.5
78522;SHT31;67819;51.972;5.678;2023-04-09T07:48:09;10.8;65.2
78522;SHT31;67819;51.972;5.678;2023-04-09T07:50:38;10.8;64.9
78522;SHT31;67819;51.972;5.678;2023-04-09T07:53:07;10.9;65.1
78522;SHT31;67819;51.972;5.678;2023-04-09T07:55:35;10.9;65.2
78522;SHT31;67819;51.972;5.678;2023-04-09T07:58:04;11.0;63.9
78522;SHT31;67819;51.972;5.678;2023-04-09T08:00:33;11.1;63.4
78522;SHT31;67819;51.972;5.678;2023-04-09T08:03:01;11.1;63.6
78522;SHT31;67819;51.972;5.678;2023-04-09T08:05:31;11.1;64.4
78522;SHT31;67819;51.972;5.678;2023-04-09T08:08:01;11.1;64.3
78522;SHT31;67819;51.972;5.678;2023-04-09T08:10:30;11.2;63.8
78522;SHT31;67819;51.972;5.678;2023-04-09T08:12:59;11.2;63.5
78522;SHT31;67819;51.972;5.678;2023-04-09T08:15:27;11.2;63.8
78522;SHT31;67819;51.972;5.678;2023-04-09T08:17:56;11.3;64.5
78522;SHT31;67819;51.972;5.678;2023-04-09T08:20:25;11.3;64.1
78522;SHT31;67819;51.972;5.678;2023-04-09T08:22:54;11.4;64.4
78522;SHT31;67819;51.972;5.678;2023-04-09T08:25:25;11.4;63.7
78522;SHT31;67819;51.972;5.678;2023-04-09T08:27:53;11.5;63.2
78522;SHT31;67819;51.972;5.678;2023-04-09T08:30:22;11.5;63.3
78522;SHT31;67819;51.972;5.678;2023-04-09T08:32:50;11.6;63.3
78522;SHT31;67819;51.972;5.678;2023-04-09T08:35:19;11.6;62.7
78522;SHT31;67819;51.972;5.678;2023-04-09T08:37:48;11.7;63.8
78522;SHT31;67819;51.972;5.678;2023-04-09T08:40:17;11.7;63.1
78522;SHT31;67819;51.972;5.678;2023-04-09T08:42:50;11.8;61.8
78522;SHT31;67819;51.972;5.678;2023-04-09T08:45:21;11.9;61.9
78522;SHT31;67819;51.972;5.678;2023-04-09T08:47:50;11.9;62.7
78522;SHT31;67819;51.972;5.678;2023-04-09T08:50:19;11.9;62.6
78522;SHT31;67819;51.972;5.678;2023-04-09T08:52:48;12.0;62.1
78522;SHT31;67819;51.972;5.678;2023-04-09T08:55:18;12.1;61.1
78522;SHT31;67819;51.972;5.678;2023-04-09T08:57:46;12.1;59.8
78522;SHT31;67819;51.972;5.678;2023-04-09T09:00:15;12.2;60.4
78522;SHT31;67819;51.972;5.678;2023-04-09T09:03:02;12.3;59.8
78522;SHT31;67819;51.972;5.678;2023-04-09T09:05:40;12.4;59.2
78522;SHT31;67819;51.972;5.678;2023-04-09T09:08:11;12.4;59.0
78522;SHT31;67819;51.972;5.678;2023-04-09T09:10:41;12.4;58.9
78522;SHT31;67819;51.972;5.678;2023-04-09T09:13:18;12.5;59.4
78522;SHT31;67819;51.972;5.678;2023-04-09T09:15:48;12.6;59.6
78522;SHT31;67819;51.972;5.678;2023-04-09T09:18:36;12.7;58.6
78522;SHT31;67819;51.972;5.678;2023-04-09T09:21:10;12.8;57.7
78522;SHT31;67819;51.972;5.678;2023-04-09T09:23:39;12.8;58.3
78522;SHT31;67819;51.972;5.678;2023-04-09T09:26:15;12.9;56.5
78522;SHT31;67819;51.972;5.678;2023-04-09T09:28:44;12.9;57.0
78522;SHT31;67819;51.972;5.678;2023-04-09T09:31:14;13.0;56.8
78522;SHT31;67819;51.972;5.678;2023-04-09T09:33:43;13.0;56.0
78522;SHT31;67819;51.972;5.678;2023-04-09T09:36:14;13.1;56.3
78522;SHT31;67819;51.972;5.678;2023-04-09T09:38:54;13.2;55.7
78522;SHT31;67819;51.972;5.678;2023-04-09T09:41:23;13.2;55.8
78522;SHT31;67819;51.972;5.678;2023-04-09T09:43:53;13.3;56.3
78522;SHT31;67819;51.972;5.678;2023-04-09T09:46:24;13.3;55.4
78522;SHT31;67819;51.972;5.678;2023-04-09T09:48:53;13.4;55.6
78522;SHT31;67819;51.972;5.678;2023-04-09T09:51:25;13.5;54.8
78522;SHT31;67819;51.972;5.678;2023-04-09T09:53:56;13.5;54.7
78522;SHT31;67819;51.972;5.678;2023-04-09T09:56:33;13.6;53.8
78522;SHT31;67819;51.972;5.678;2023-04-09T09:59:06;13.7;54.0
78522;SHT31;67819;51.972;5.678;2023-04-09T10:01:38;13.7;53.5
78522;SHT31;67819;51.972;5.678;2023-04-09T10:04:12;13.7;54.4
78522;SHT31;67819;51.972;5.678;2023-04-09T10:06:43;13.8;53.3
78522;SHT31;67819;51.972;5.678;2023-04-09T10:09:12;13.8;52.3
78522;SHT31;67819;51.972;5.678;2023-04-09T10:11:41;13.8;52.0
78522;SHT31;67819;51.972;5.678;2023-04-09T10:14:13;13.9;54.1
78522;SHT31;67819;51.972;5.678;2023-04-09T10:16:43;13.9;51.9
78522;SHT31;67819;51.972;5.678;2023-04-09T10:19:16;14.0;53.2
78522;SHT31;67819;51.972;5.678;2023-04-09T10:21:52;14.0;52.4
78522;SHT31;67819;51.972;5.678;2023-04-09T10:24:26;14.1;51.3
78522;SHT31;67819;51.972;5.678;2023-04-09T10:27:10;14.1;50.9
78522;SHT31;67819;51.972;5.678;2023-04-09T10:29:44;14.1;51.1
78522;SHT31;67819;51.972;5.678;2023-04-09T10:32:18;14.2;50.2
78522;SHT31;67819;51.972;5.678;2023-04-09T10:34:49;14.2;51.4
78522;SHT31;67819;51.972;5.678;2023-04-09T10:37:23;14.2;51.0
78522;SHT31;67819;51.972;5.678;2023-04-09T10:39:52;14.3;50.8
78522;SHT31;67819;51.972;5.678;2023-04-09T10:42:24;14.3;49.8
78522;SHT31;67819;51.972;5.678;2023-04-09T10:45:07;14.4;50.1
78522;SHT31;67819;51.972;5.678;2023-04-09T10:47:37;14.4;49.6
78522;SHT31;67819;51.972;5.678;2023-04-09T10:50:16;14.5;49.3
78522;SHT31;67819;51.972;5.678;2023-04-09T10:52:45;14.5;49.1
78522;SHT31;67819;51.972;5.678;2023-04-09T10:55:33;14.6;48.8
78522;SHT31;67819;51.972;5.678;2023-04-09T10:58:02;14.6;49.5
78522;SHT31;67819;51.972;5.678;2023-04-09T11:00:36;14.7;49.9
78522;SHT31;67819;51.972;5.678;2023-04-09T11:03:27;14.8;48.9
78522;SHT31;67819;51.972;5.678;2023-04-09T11:06:02;14.9;48.2
78522;SHT31;67819;51.972;5.678;2023-04-09T11:08:32;14.9;47.7
78522;SHT31;67819;51.972;5.678;2023-04-09T11:11:01;15.0;46.3
78522;SHT31;67819;51.972;5.678;2023-04-09T11:13:31;15.0;47.3
78522;SHT31;67819;51.972;5.678;2023-04-09T11:16:00;15.1;46.9
78522;SHT31;67819;51.972;5.678;2023-04-09T11:18:33;15.2;47.7
78522;SHT31;67819;51.972;5.678;2023-04-09T11:21:03;15.3;47.3
78522;SHT31;67819;51.972;5.678;2023-04-09T11:23:32;15.4;47.6
78522;SHT31;67819;51.972;5.678;2023-04-09T11:26:01;15.5;45.9
78522;SHT31;67819;51.972;5.678;2023-04-09T11:28:30;15.6;45.5
78522;SHT31;67819;51.972;5.678;2023-04-09T11:30:59;15.6;47.2
78522;SHT31;67819;51.972;5.678;2023-04-09T11:33:32;15.7;46.3
78522;SHT31;67819;51.972;5.678;2023-04-09T11:36:03;15.8;45.7
78522;SHT31;67819;51.972;5.678;2023-04-09T11:38:32;15.9;45.9
78522;SHT31;67819;51.972;5.678;2023-04-09T11:41:01;16.1;43.9
78522;SHT31;67819;51.972;5.678;2023-04-09T11:43:29;16.2;45.0
78522;SHT31;67819;51.972;5.678;2023-04-09T11:45:58;16.3;44.8
78522;SHT31;67819;51.972;5.678;2023-04-09T11:48:27;16.4;44.9
78522;SHT31;67819;51.972;5.678;2023-04-09T11:50:57;16.5;42.1
78522;SHT31;67819;51.972;5.678;2023-04-09T11:53:29;16.5;42.4
78522;SHT31;67819;51.972;5.678;2023-04-09T11:55:58;16.5;42.1
78522;SHT31;67819;51.972;5.678;2023-04-09T11:58:30;16.5;42.0
78522;SHT31;67819;51.972;5.678;2023-04-09T12:01:00;16.4;42.2
78522;SHT31;67819;51.972;5.678;2023-04-09T12:03:30;16.4;41.2
78522;SHT31;67819;51.972;5.678;2023-04-09T12:06:02;16.3;41.7
78522;SHT31;67819;51.972;5.678;2023-04-09T12:08:35;16.3;41.2
78522;SHT31;67819;51.972;5.678;2023-04-09T12:11:11;16.2;41.1
78522;SHT31;67819;51.972;5.678;2023-04-09T12:13:40;16.2;40.5
78522;SHT31;67819;51.972;5.678;2023-04-09T12:16:10;16.2;41.3
78522;SHT31;67819;51.972;5.678;2023-04-09T12:18:39;16.2;40.6
78522;SHT31;67819;51.972;5.678;2023-04-09T12:21:08;16.3;40.7
78522;SHT31;67819;51.972;5.678;2023-04-09T12:23:36;16.3;39.9
78522;SHT31;67819;51.972;5.678;2023-04-09T12:26:07;16.3;39.7
78522;SHT31;67819;51.972;5.678;2023-04-09T12:28:36;16.3;40.8
78522;SHT31;67819;51.972;5.678;2023-04-09T12:31:08;16.3;40.7
78522;SHT31;67819;51.972;5.678;2023-04-09T12:33:37;16.4;40.0
78522;SHT31;67819;51.972;5.678;2023-04-09T12:36:06;16.4;40.0
78522;SHT31;67819;51.972;5.678;2023-04-09T12:38:35;16.4;40.4
78522;SHT31;67819;51.972;5.678;2023-04-09T12:41:03;16.5;40.5
78522;SHT31;67819;51.972;5.678;2023-04-09T12:43:32;16.5;40.2
78522;SHT31;67819;51.972;5.678;2023-04-09T12:46:01;16.5;39.9
78522;SHT31;67819;51.972;5.678;2023-04-09T12:48:30;16.5;40.1
78522;SHT31;67819;51.972;5.678;2023-04-09T12:50:59;16.5;40.8
78522;SHT31;67819;51.972;5.678;2023-04-09T12:53:28;16.5;41.5
78522;SHT31;67819;51.972;5.678;2023-04-09T12:55:57;16.6;40.5
78522;SHT31;67819;51.972;5.678;2023-04-09T12:58:27;16.7;40.1
78522;SHT31;67819;51.972;5.678;2023-04-09T13:00:57;16.8;39.8
78522;SHT31;67819;51.972;5.678;2023-04-09T13:03:25;16.8;39.9
78522;SHT31;67819;51.972;5.678;2023-04-09T13:05:54;16.9;41.0
78522;SHT31;67819;51.972;5.678;2023-04-09T13:08:23;16.9;39.7
78522;SHT31;67819;51.972;5.678;2023-04-09T13:10:52;17.0;40.7
78522;SHT31;67819;51.972;5.678;2023-04-09T13:13:20;17.1;40.0
78522;SHT31;67819;51.972;5.678;2023-04-09T13:15:50;17.3;39.9
78522;SHT31;67819;51.972;5.678;2023-04-09T13:18:18;17.4;39.1
78522;SHT31;67819;51.972;5.678;2023-04-09T13:20:47;17.4;40.9
78522;SHT31;67819;51.972;5.678;2023-04-09T13:23:16;17.5;40.2
78522;SHT31;67819;51.972;5.678;2023-04-09T13:25:44;17.7;39.4
78522;SHT31;67819;51.972;5.678;2023-04-09T13:28:13;17.8;38.5
78522;SHT31;67819;51.972;5.678;2023-04-09T13:30:42;17.9;38.9
78522;SHT31;67819;51.972;5.678;2023-04-09T13:33:11;18.0;38.3
78522;SHT31;67819;51.972;5.678;2023-04-09T13:35:39;18.1;38.8
78522;SHT31;67819;51.972;5.678;2023-04-09T13:38:08;18.3;38.6
78522;SHT31;67819;51.972;5.678;2023-04-09T13:40:36;18.4;39.2
78522;SHT31;67819;51.972;5.678;2023-04-09T13:43:06;18.6;37.9
78522;SHT31;67819;51.972;5.678;2023-04-09T13:45:34;18.8;37.5
78522;SHT31;67819;51.972;5.678;2023-04-09T13:48:05;18.8;36.5
78522;SHT31;67819;51.972;5.678;2023-04-09T13:50:33;18.9;35.8
78522;SHT31;67819;51.972;5.678;2023-04-09T13:53:02;18.9;36.2
78522;SHT31;67819;51.972;5.678;2023-04-09T13:55:33;18.9;37.6
78522;SHT31;67819;51.972;5.678;2023-04-09T13:58:02;18.9;36.9
78522;SHT31;67819;51.972;5.678;2023-04-09T14:00:31;18.9;36.2
78522;SHT31;67819;51.972;5.678;2023-04-09T14:03:00;18.9;36.0
78522;SHT31;67819;51.972;5.678;2023-04-09T14:05:30;18.8;37.7
78522;SHT31;67819;51.972;5.678;2023-04-09T14:07:59;18.6;36.6
78522;SHT31;67819;51.972;5.678;2023-04-09T14:10:28;18.6;37.0
78522;SHT31;67819;51.972;5.678;2023-04-09T14:12:59;18.5;36.8
78522;SHT31;67819;51.972;5.678;2023-04-09T14:15:32;18.5;37.2
78522;SHT31;67819;51.972;5.678;2023-04-09T14:18:02;18.5;36.6
78522;SHT31;67819;51.972;5.678;2023-04-09T14:20:31;18.4;36.4
78522;SHT31;67819;51.972;5.678;2023-04-09T14:23:00;18.3;37.0
78522;SHT31;67819;51.972;5.678;2023-04-09T14:25:29;18.3;37.9
78522;SHT31;67819;51.972;5.678;2023-04-09T14:27:58;18.3;37.3
78522;SHT31;67819;51.972;5.678;2023-04-09T14:30:28;18.2;37.7
78522;SHT31;67819;51.972;5.678;2023-04-09T14:32:57;18.2;38.0
78522;SHT31;67819;51.972;5.678;2023-04-09T14:35:25;18.2;38.0
78522;SHT31;67819;51.972;5.678;2023-04-09T14:37:54;18.2;38.2
78522;SHT31;67819;51.972;5.678;2023-04-09T14:40:22;18.2;38.2
78522;SHT31;67819;51.972;5.678;2023-04-09T14:42:51;18.2;38.1
78522;SHT31;67819;51.972;5.678;2023-04-09T14:45:20;18.2;37.6
78522;SHT31;67819;51.972;5.678;2023-04-09T14:47:48;18.2;38.7
78522;SHT31;67819;51.972;5.678;2023-04-09T14:50:19;18.3;37.8
78522;SHT31;67819;51.972;5.678;2023-04-09T14:52:48;18.4;37.0
78522;SHT31;67819;51.972;5.678;2023-04-09T14:55:18;18.6;37.4
78522;SHT31;67819;51.972;5.678;2023-04-09T14:57:49;18.7;36.8
78522;SHT31;67819;51.972;5.678;2023-04-09T15:00:20;18.8;36.2
78522;SHT31;67819;51.972;5.678;2023-04-09T15:02:48;18.9;35.8
78522;SHT31;67819;51.972;5.678;2023-04-09T15:05:17;18.8;36.0
78522;SHT31;67819;51.972;5.678;2023-04-09T15:07:46;18.6;36.8
78522;SHT31;67819;51.972;5.678;2023-04-09T15:10:15;18.4;36.5
78522;SHT31;67819;51.972;5.678;2023-04-09T15:12:43;18.2;36.5
78522;SHT31;67819;51.972;5.678;2023-04-09T15:15:12;18.0;37.2
78522;SHT31;67819;51.972;5.678;2023-04-09T15:17:41;17.9;37.8
78522;SHT31;67819;51.972;5.678;2023-04-09T15:20:10;17.9;37.8
78522;SHT31;67819;51.972;5.678;2023-04-09T15:22:39;17.8;38.4
78522;SHT31;67819;51.972;5.678;2023-04-09T15:25:08;17.7;38.5
78522;SHT31;67819;51.972;5.678;2023-04-09T15:27:37;17.6;39.1
78522;SHT31;67819;51.972;5.678;2023-04-09T15:30:06;17.6;38.5
78522;SHT31;67819;51.972;5.678;2023-04-09T15:32:35;17.6;38.8
78522;SHT31;67819;51.972;5.678;2023-04-09T15:35:04;17.7;39.7
78522;SHT31;67819;51.972;5.678;2023-04-09T15:37:33;17.9;38.1
78522;SHT31;67819;51.972;5.678;2023-04-09T15:40:02;17.9;38.6
78522;SHT31;67819;51.972;5.678;2023-04-09T15:42:31;18.0;38.7
78522;SHT31;67819;51.972;5.678;2023-04-09T15:45:00;18.1;39.3
78522;SHT31;67819;51.972;5.678;2023-04-09T15:47:28;18.2;39.1
78522;SHT31;67819;51.972;5.678;2023-04-09T15:49:58;18.4;37.8
78522;SHT31;67819;51.972;5.678;2023-04-09T15:52:26;18.6;38.5
78522;SHT31;67819;51.972;5.678;2023-04-09T15:54:57;18.6;37.4
78522;SHT31;67819;51.972;5.678;2023-04-09T15:57:25;18.7;37.7
78522;SHT31;67819;51.972;5.678;2023-04-09T15:59:54;18.6;37.4
78522;SHT31;67819;51.972;5.678;2023-04-09T16:02:22;18.6;37.6
78522;SHT31;67819;51.972;5.678;2023-04-09T16:04:51;18.5;37.3
78522;SHT31;67819;51.972;5.678;2023-04-09T16:07:20;18.5;37.1
78522;SHT31;67819;51.972;5.678;2023-04-09T16:09:48;18.5;37.3
78522;SHT31;67819;51.972;5.678;2023-04-09T16:12:17;18.4;36.8
78522;SHT31;67819;51.972;5.678;2023-04-09T16:14:46;18.4;36.9
78522;SHT31;67819;51.972;5.678;2023-04-09T16:17:14;18.4;37.1
78522;SHT31;67819;51.972;5.678;2023-04-09T16:19:43;18.4;37.7